createdAt,value
2023-08-06T00:01:06.928Z,93512.00
2023-08-06T00:03:33.871Z,93511.00
2023-08-06T00:06:03.354Z,93521.00
2023-08-06T00:08:30.504Z,93511.00
2023-08-06T00:10:57.410Z,93517.00
2023-08-06T00:13:24.362Z,93513.00
2023-08-06T00:15:53.377Z,93517.00
2023-08-06T00:18:20.319Z,93517.00
2023-08-06T00:20:47.308Z,93526.00
2023-08-06T00:23:14.220Z,93533.00
2023-08-06T00:25:43.737Z,93524.00
2023-08-06T00:28:10.790Z,93530.00
2023-08-06T00:30:37.700Z,93525.00
2023-08-06T00:33:11.655Z,93523.00
2023-08-06T00:35:38.579Z,93514.00
2023-08-06T00:38:05.404Z,93499.00
2023-08-06T00:40:34.910Z,93490.00
2023-08-06T00:43:01.804Z,93498.00
2023-08-06T00:45:30.925Z,93499.00
2023-08-06T00:47:58.019Z,93505.00
2023-08-06T00:50:25.066Z,93510.00
2023-08-06T00:52:52.452Z,93503.00
2023-08-06T00:55:19.652Z,93500.00
2023-08-06T00:57:48.956Z,93501.00
2023-08-06T01:00:15.883Z,93505.00
2023-08-06T01:02:43.178Z,93506.00
2023-08-06T01:05:10.261Z,93497.00
2023-08-06T01:08:17.142Z,93499.00
2023-08-06T01:11:07.436Z,93497.00
2023-08-06T01:13:50.195Z,93497.00
2023-08-06T01:16:22.277Z,93491.00
2023-08-06T01:18:54.960Z,93491.00
2023-08-06T01:21:21.911Z,93493.00
2023-08-06T01:23:49.525Z,93479.00
2023-08-06T01:26:26.600Z,93482.00
2023-08-06T01:29:20.546Z,93463.00
2023-08-06T01:31:50.504Z,93463.00
2023-08-06T01:34:27.055Z,93454.00
2023-08-06T01:36:54.636Z,93455.00
2023-08-06T01:39:24.603Z,93454.00
2023-08-06T01:41:53.916Z,93455.00
2023-08-06T01:44:25.869Z,93442.00
2023-08-06T01:46:52.786Z,93441.00
2023-08-06T01:49:19.718Z,93446.00
2023-08-06T01:51:46.807Z,93444.00
2023-08-06T01:54:19.020Z,93446.00
2023-08-06T01:56:48.486Z,93441.00
2023-08-06T01:59:17.923Z,93432.00
2023-08-06T02:01:47.990Z,93433.00
2023-08-06T02:04:19.762Z,93435.00
2023-08-06T02:06:46.625Z,93423.00
2023-08-06T02:09:13.583Z,93431.00
2023-08-06T02:11:40.531Z,93434.00
2023-08-06T02:14:07.374Z,93429.00
2023-08-06T02:16:34.281Z,93429.00
2023-08-06T02:19:01.499Z,93436.00
2023-08-06T02:21:30.920Z,93431.00
2023-08-06T02:23:57.787Z,93431.00
2023-08-06T02:26:24.689Z,93430.00
2023-08-06T02:28:53.791Z,93430.00
2023-08-06T02:31:23.265Z,93438.00
2023-08-06T02:33:53.026Z,93441.00
2023-08-06T02:36:22.134Z,93428.00
2023-08-06T02:38:51.669Z,93431.00
2023-08-06T02:41:18.544Z,93433.00
2023-08-06T02:43:47.554Z,93427.00
2023-08-06T02:46:14.626Z,93423.00
2023-08-06T02:48:41.555Z,93419.00
2023-08-06T02:51:08.600Z,93417.00
2023-08-06T02:53:37.588Z,93414.00
2023-08-06T02:56:04.769Z,93414.00
2023-08-06T02:58:31.684Z,93403.00
2023-08-06T03:01:07.029Z,93396.00
2023-08-06T03:03:36.549Z,93395.00
2023-08-06T03:06:03.688Z,93400.00
2023-08-06T03:08:30.672Z,93390.00
2023-08-06T03:10:57.891Z,93391.00
2023-08-06T03:13:24.926Z,93386.00
2023-08-06T03:16:00.102Z,93394.00
2023-08-06T03:18:27.542Z,93389.00
2023-08-06T03:20:56.804Z,93395.00
2023-08-06T03:23:25.999Z,93390.00
2023-08-06T03:25:57.763Z,93385.00
2023-08-06T03:28:24.922Z,93393.00
2023-08-06T03:31:02.381Z,93389.00
2023-08-06T03:33:29.855Z,93392.00
2023-08-06T03:35:57.385Z,93389.00
2023-08-06T03:38:24.847Z,93396.00
2023-08-06T03:40:51.984Z,93390.00
2023-08-06T03:43:20.983Z,93384.00
2023-08-06T03:45:49.962Z,93381.00
2023-08-06T03:48:16.854Z,93380.00
2023-08-06T03:50:43.848Z,93383.00
2023-08-06T03:53:10.748Z,93387.00
2023-08-06T03:55:37.664Z,93392.00
2023-08-06T03:58:07.050Z,93386.00
2023-08-06T04:00:34.387Z,93397.00
2023-08-06T04:03:01.494Z,93398.00
2023-08-06T04:05:28.476Z,93404.00
2023-08-06T04:07:55.413Z,93411.00
2023-08-06T04:10:22.359Z,93415.00
2023-08-06T04:12:51.363Z,93411.00
2023-08-06T04:15:18.468Z,93413.00
2023-08-06T04:17:45.407Z,93416.00
2023-08-06T04:20:15.322Z,93422.00
2023-08-06T04:22:42.235Z,93414.00
2023-08-06T04:25:11.712Z,93422.00
2023-08-06T04:27:42.444Z,93416.00
2023-08-06T04:30:10.583Z,93411.00
2023-08-06T04:32:40.403Z,93402.00
2023-08-06T04:35:07.687Z,93393.00
2023-08-06T04:37:34.607Z,93393.00
2023-08-06T04:40:01.576Z,93394.00
2023-08-06T04:42:28.478Z,93388.00
2023-08-06T04:44:57.932Z,93388.00
2023-08-06T04:47:26.975Z,93398.00
2023-08-06T04:49:54.513Z,93397.00
2023-08-06T04:52:21.384Z,93394.00
2023-08-06T04:54:48.272Z,93393.00
2023-08-06T04:57:19.747Z,93392.00
2023-08-06T04:59:46.698Z,93398.00
2023-08-06T05:02:13.648Z,93403.00
2023-08-06T05:04:40.702Z,93402.00
2023-08-06T05:07:07.714Z,93411.00
2023-08-06T05:09:34.679Z,93403.00
2023-08-06T05:12:05.992Z,93400.00
2023-08-06T05:14:35.402Z,93409.00
2023-08-06T05:17:05.798Z,93400.00
2023-08-06T05:19:33.034Z,93400.00
2023-08-06T05:22:00.049Z,93413.00
2023-08-06T05:24:27.025Z,93412.00
2023-08-06T05:26:53.909Z,93413.00
2023-08-06T05:29:23.185Z,93403.00
2023-08-06T05:31:52.705Z,93410.00
2023-08-06T05:34:20.046Z,93411.00
2023-08-06T05:36:46.923Z,93416.00
2023-08-06T05:39:13.951Z,93413.00
2023-08-06T05:41:43.057Z,93421.00
2023-08-06T05:44:15.007Z,93427.00
2023-08-06T05:46:44.011Z,93430.00
2023-08-06T05:49:14.815Z,93442.00
2023-08-06T05:51:42.642Z,93437.00
2023-08-06T05:54:12.154Z,93440.00
2023-08-06T05:56:39.027Z,93435.00
2023-08-06T05:59:08.617Z,93441.00
2023-08-06T06:01:35.565Z,93447.00
2023-08-06T06:04:02.858Z,93447.00
2023-08-06T06:06:29.803Z,93442.00
2023-08-06T06:08:59.355Z,93432.00
2023-08-06T06:11:28.733Z,93434.00
2023-08-06T06:13:55.656Z,93430.00
2023-08-06T06:16:22.729Z,93431.00
2023-08-06T06:18:51.772Z,93428.00
2023-08-06T06:21:18.687Z,93427.00
2023-08-06T06:23:45.566Z,93426.00
2023-08-06T06:26:14.942Z,93424.00
2023-08-06T06:28:41.790Z,93427.00
2023-08-06T06:31:11.005Z,93432.00
2023-08-06T06:33:40.186Z,93438.00
2023-08-06T06:36:08.670Z,93437.00
2023-08-06T06:38:35.872Z,93448.00
2023-08-06T06:41:04.494Z,93447.00
2023-08-06T06:43:34.036Z,93449.00
2023-08-06T06:46:03.888Z,93455.00
2023-08-06T06:48:33.413Z,93458.00
2023-08-06T06:51:01.088Z,93462.00
2023-08-06T06:53:30.439Z,93460.00
2023-08-06T06:56:03.021Z,93456.00
2023-08-06T06:58:32.492Z,93460.00
2023-08-06T07:01:02.000Z,93464.00
2023-08-06T07:03:29.010Z,93470.00
2023-08-06T07:06:00.109Z,93465.00
2023-08-06T07:08:27.185Z,93477.00
2023-08-06T07:11:05.739Z,93484.00
2023-08-06T07:13:33.864Z,93489.00
2023-08-06T07:16:03.275Z,93477.00
2023-08-06T07:18:34.980Z,93480.00
2023-08-06T07:21:03.979Z,93487.00
2023-08-06T07:23:30.951Z,93490.00
2023-08-06T07:25:57.928Z,93500.00
2023-08-06T07:28:27.406Z,93498.00
2023-08-06T07:30:56.640Z,93499.00
2023-08-06T07:33:23.558Z,93495.00
2023-08-06T07:35:50.506Z,93496.00
2023-08-06T07:38:17.456Z,93502.00
2023-08-06T07:40:49.780Z,93500.00
2023-08-06T07:43:16.711Z,93504.00
2023-08-06T07:45:43.586Z,93499.00
2023-08-06T07:48:10.500Z,93493.00
2023-08-06T07:50:37.494Z,93497.00
2023-08-06T07:53:04.623Z,93497.00
2023-08-06T07:55:33.793Z,93498.00
2023-08-06T07:58:00.670Z,93505.00
2023-08-06T08:00:30.864Z,93496.00
2023-08-06T08:03:02.623Z,93503.00
2023-08-06T08:05:31.971Z,93495.00
2023-08-06T08:07:58.973Z,93496.00
2023-08-06T08:10:28.108Z,93501.00
2023-08-06T08:12:59.750Z,93495.00
2023-08-06T08:15:32.316Z,93492.00
2023-08-06T08:18:00.312Z,93504.00
2023-08-06T08:20:32.742Z,93503.00
2023-08-06T08:23:01.553Z,93503.00
2023-08-06T08:25:31.587Z,93506.00
2023-08-06T08:28:01.864Z,93502.00
2023-08-06T08:30:29.009Z,93512.00
2023-08-06T08:32:56.215Z,93512.00
2023-08-06T08:35:25.197Z,93502.00
2023-08-06T08:37:52.639Z,93499.00
2023-08-06T08:40:19.952Z,93499.00
2023-08-06T08:42:51.673Z,93500.00
2023-08-06T08:45:23.783Z,93502.00
2023-08-06T08:47:50.831Z,93503.00
2023-08-06T08:50:20.630Z,93516.00
2023-08-06T08:52:49.966Z,93521.00
2023-08-06T08:55:17.704Z,93524.00
2023-08-06T08:57:44.971Z,93517.00
2023-08-06T09:00:19.145Z,93528.00
2023-08-06T09:02:47.772Z,93533.00
2023-08-06T09:05:16.106Z,93523.00
2023-08-06T09:07:45.005Z,93529.00
2023-08-06T09:10:18.659Z,93541.00
2023-08-06T09:12:47.095Z,93535.00
2023-08-06T09:15:16.460Z,93544.00
2023-08-06T09:17:45.540Z,93533.00
2023-08-06T09:20:16.734Z,93539.00
2023-08-06T09:22:45.438Z,93543.00
2023-08-06T09:25:22.498Z,93551.00
2023-08-06T09:27:49.450Z,93552.00
2023-08-06T09:30:38.352Z,93552.00
2023-08-06T09:33:15.187Z,93555.00
2023-08-06T09:35:42.111Z,93547.00
2023-08-06T09:38:11.643Z,93552.00
2023-08-06T09:40:44.257Z,93544.00
2023-08-06T09:43:13.836Z,93551.00
2023-08-06T09:45:44.879Z,93551.00
2023-08-06T09:48:14.891Z,93551.00
2023-08-06T09:50:42.499Z,93547.00
2023-08-06T09:53:10.621Z,93554.00
2023-08-06T09:55:38.304Z,93547.00
2023-08-06T09:58:06.637Z,93551.00
2023-08-06T10:00:39.511Z,93554.00
2023-08-06T10:03:11.399Z,93556.00
2023-08-06T10:05:39.716Z,93567.00
2023-08-06T10:08:08.391Z,93564.00
2023-08-06T10:10:38.362Z,93569.00
2023-08-06T10:13:08.195Z,93562.00
2023-08-06T10:15:39.439Z,93566.00
2023-08-06T10:18:10.351Z,93564.00
2023-08-06T10:20:37.536Z,93560.00
2023-08-06T10:23:10.643Z,93565.00
2023-08-06T10:25:45.336Z,93570.00
2023-08-06T10:28:19.609Z,93570.00
2023-08-06T10:30:53.411Z,93570.00
2023-08-06T10:33:22.126Z,93573.00
2023-08-06T10:35:50.849Z,93574.00
2023-08-06T10:38:27.300Z,93566.00
2023-08-06T10:40:54.356Z,93584.00
2023-08-06T10:43:39.577Z,93588.00
2023-08-06T10:46:13.284Z,93586.00
2023-08-06T10:48:46.679Z,93585.00
2023-08-06T10:51:18.253Z,93580.00
2023-08-06T10:53:48.071Z,93579.00
2023-08-06T10:56:15.714Z,93591.00
2023-08-06T10:58:48.515Z,93590.00
2023-08-06T11:01:16.567Z,93588.00
2023-08-06T11:03:45.994Z,93586.00
2023-08-06T11:06:22.620Z,93576.00
2023-08-06T11:08:54.835Z,93589.00
2023-08-06T11:11:24.266Z,93587.00
2023-08-06T11:13:52.872Z,93591.00
2023-08-06T11:16:22.612Z,93588.00
2023-08-06T11:18:55.665Z,93592.00
2023-08-06T11:21:25.478Z,93598.00
2023-08-06T11:23:53.162Z,93601.00
2023-08-06T11:26:26.901Z,93600.00
2023-08-06T11:28:56.825Z,93599.00
2023-08-06T11:31:24.699Z,93597.00
2023-08-06T11:33:53.143Z,93596.00
2023-08-06T11:36:31.318Z,93609.00
2023-08-06T11:39:01.749Z,93604.00
2023-08-06T11:41:33.035Z,93607.00
2023-08-06T11:44:00.928Z,93597.00
2023-08-06T11:46:28.159Z,93606.00
2023-08-06T11:49:00.017Z,93597.00
2023-08-06T11:51:27.741Z,93623.00
2023-08-06T11:53:59.566Z,93615.00
2023-08-06T11:56:28.071Z,93610.00
2023-08-06T11:58:56.320Z,93624.00
2023-08-06T12:01:23.291Z,93618.00
2023-08-06T12:03:50.266Z,93631.00
2023-08-06T12:06:17.285Z,93640.00
2023-08-06T12:08:44.210Z,93635.00
2023-08-06T12:11:13.490Z,93647.00
2023-08-06T12:13:40.376Z,93655.00
2023-08-06T12:16:09.654Z,93660.00
2023-08-06T12:18:36.691Z,93671.00
2023-08-06T12:21:03.758Z,93678.00
2023-08-06T12:23:30.955Z,93671.00
2023-08-06T12:25:58.311Z,93671.00
2023-08-06T12:28:25.262Z,93676.00
2023-08-06T12:30:55.799Z,93678.00
2023-08-06T12:33:22.877Z,93685.00
2023-08-06T12:35:49.790Z,93691.00
2023-08-06T12:38:16.733Z,93685.00
2023-08-06T12:40:46.148Z,93687.00
2023-08-06T12:43:13.095Z,93692.00
2023-08-06T12:45:40.014Z,93693.00
2023-08-06T12:48:11.656Z,93684.00
2023-08-06T12:50:41.617Z,93691.00
2023-08-06T12:53:10.982Z,93692.00
2023-08-06T12:55:38.181Z,93694.00
2023-08-06T12:58:09.815Z,93699.00
2023-08-06T13:00:36.836Z,93694.00
2023-08-06T13:03:07.402Z,93693.00
2023-08-06T13:05:37.405Z,93701.00
2023-08-06T13:08:04.550Z,93707.00
2023-08-06T13:10:32.466Z,93714.00
2023-08-06T13:13:01.949Z,93713.00
2023-08-06T13:15:28.971Z,93713.00
2023-08-06T13:17:55.977Z,93707.00
2023-08-06T13:20:24.025Z,93708.00
2023-08-06T13:22:54.084Z,93719.00
2023-08-06T13:25:24.019Z,93737.00
2023-08-06T13:27:51.701Z,93740.00
2023-08-06T13:30:21.517Z,93730.00
2023-08-06T13:32:48.620Z,93727.00
2023-08-06T13:35:18.072Z,93720.00
2023-08-06T13:37:45.000Z,93724.00
2023-08-06T13:40:12.455Z,93729.00
2023-08-06T13:42:42.014Z,93725.00
2023-08-06T13:45:09.636Z,93733.00
2023-08-06T13:47:36.584Z,93728.00
2023-08-06T13:50:06.753Z,93734.00
2023-08-06T13:52:37.034Z,93740.00
2023-08-06T13:55:06.386Z,93737.00
2023-08-06T13:57:34.938Z,93741.00
2023-08-06T14:00:03.061Z,93733.00
2023-08-06T14:02:30.560Z,93736.00
2023-08-06T14:04:59.812Z,93742.00
2023-08-06T14:07:26.694Z,93752.00
2023-08-06T14:09:59.472Z,93757.00
2023-08-06T14:12:26.386Z,93756.00
2023-08-06T14:14:53.363Z,93762.00
2023-08-06T14:17:20.299Z,93759.00
2023-08-06T14:19:47.162Z,93767.00
2023-08-06T14:22:14.113Z,93761.00
2023-08-06T14:24:41.610Z,93773.00
2023-08-06T14:27:10.822Z,93768.00
2023-08-06T14:29:40.036Z,93760.00
2023-08-06T14:32:09.711Z,93777.00
2023-08-06T14:34:36.656Z,93775.00
2023-08-06T14:37:06.719Z,93778.00
2023-08-06T14:39:33.652Z,93781.00
2023-08-06T14:42:00.635Z,93785.00
2023-08-06T14:44:27.523Z,93786.00
2023-08-06T14:46:56.968Z,93796.00
2023-08-06T14:49:24.914Z,93792.00
2023-08-06T14:51:52.179Z,93807.00
2023-08-06T14:54:19.317Z,93808.00
2023-08-06T14:56:48.551Z,93806.00
2023-08-06T14:59:17.995Z,93807.00
2023-08-06T15:01:44.951Z,93806.00
2023-08-06T15:04:14.441Z,93810.00
2023-08-06T15:06:41.367Z,93825.00
2023-08-06T15:09:13.901Z,93815.00
2023-08-06T15:11:41.026Z,93811.00
2023-08-06T15:14:08.353Z,93818.00
2023-08-06T15:16:35.739Z,93821.00
2023-08-06T15:19:02.937Z,93830.00
2023-08-06T15:21:29.893Z,93843.00
2023-08-06T15:23:59.336Z,93857.00
2023-08-06T15:26:28.812Z,93869.00
2023-08-06T15:28:58.792Z,93864.00
2023-08-06T15:31:38.509Z,93873.00
2023-08-06T15:34:09.111Z,93869.00
2023-08-06T15:36:36.285Z,93865.00
2023-08-06T15:39:06.043Z,93865.00
2023-08-06T15:41:32.916Z,93867.00
2023-08-06T15:44:04.516Z,93875.00
2023-08-06T15:46:35.979Z,93875.00
2023-08-06T15:49:03.538Z,93866.00
2023-08-06T15:51:33.428Z,93867.00
2023-08-06T15:54:01.360Z,93863.00
2023-08-06T15:56:30.597Z,93866.00
2023-08-06T15:58:57.568Z,93869.00
2023-08-06T16:01:29.364Z,93868.00
2023-08-06T16:03:56.371Z,93866.00
2023-08-06T16:06:25.409Z,93881.00
2023-08-06T16:08:52.357Z,93873.00
2023-08-06T16:11:21.741Z,93881.00
2023-08-06T16:13:48.625Z,93886.00
2023-08-06T16:16:15.545Z,93888.00
2023-08-06T16:18:42.495Z,93883.00
2023-08-06T16:21:09.382Z,93885.00
2023-08-06T16:23:36.289Z,93902.00
2023-08-06T16:26:03.185Z,93906.00
2023-08-06T16:28:30.202Z,93923.00
2023-08-06T16:31:00.287Z,93934.00
2023-08-06T16:33:27.219Z,93935.00
2023-08-06T16:35:56.207Z,93943.00
2023-08-06T16:38:23.172Z,93943.00
2023-08-06T16:40:57.439Z,93955.00
2023-08-06T16:43:26.094Z,93951.00
2023-08-06T16:46:00.640Z,93949.00
2023-08-06T16:48:28.091Z,93942.00
2023-08-06T16:50:57.067Z,93950.00
2023-08-06T16:53:26.419Z,93954.00
2023-08-06T16:55:55.424Z,93950.00
2023-08-06T16:58:22.568Z,93950.00
2023-08-06T17:00:56.854Z,93955.00
2023-08-06T17:03:24.118Z,93955.00
2023-08-06T17:05:51.345Z,93951.00
2023-08-06T17:08:21.426Z,93954.00
2023-08-06T17:10:51.324Z,93948.00
2023-08-06T17:13:21.089Z,93960.00
2023-08-06T17:15:49.396Z,93963.00
2023-08-06T17:18:19.644Z,93970.00
2023-08-06T17:20:50.355Z,93976.00
2023-08-06T17:23:17.563Z,93994.00
2023-08-06T17:25:48.247Z,93999.00
2023-08-06T17:28:15.603Z,94001.00
2023-08-06T17:30:43.961Z,94002.00
2023-08-06T17:33:14.397Z,93998.00
2023-08-06T17:35:44.108Z,94007.00
2023-08-06T17:38:14.450Z,94008.00
2023-08-06T17:40:43.763Z,94017.00
2023-08-06T17:43:13.386Z,94017.00
2023-08-06T17:45:40.299Z,94012.00
2023-08-06T17:48:07.235Z,94011.00
2023-08-06T17:50:34.200Z,94012.00
2023-08-06T17:53:01.127Z,94002.00
2023-08-06T17:55:28.209Z,93996.00
2023-08-06T17:57:55.163Z,94008.00
2023-08-06T18:00:22.248Z,94009.00
2023-08-06T18:02:51.761Z,94011.00
2023-08-06T18:05:18.916Z,94009.00
2023-08-06T18:07:46.203Z,94013.00
2023-08-06T18:10:15.723Z,94017.00
2023-08-06T18:12:44.886Z,94015.00
2023-08-06T18:15:15.068Z,94012.00
2023-08-06T18:17:42.482Z,94018.00
2023-08-06T18:20:10.210Z,94012.00
2023-08-06T18:22:39.313Z,94013.00
2023-08-06T18:25:09.029Z,94009.00
2023-08-06T18:27:36.621Z,94019.00
2023-08-06T18:30:04.929Z,94018.00
2023-08-06T18:32:32.109Z,94027.00
2023-08-06T18:34:59.106Z,94025.00
2023-08-06T18:37:26.247Z,94035.00
2023-08-06T18:40:02.482Z,94047.00
2023-08-06T18:42:30.216Z,94046.00
2023-08-06T18:44:59.622Z,94052.00
2023-08-06T18:47:28.111Z,94058.00
2023-08-06T18:49:55.043Z,94051.00
2023-08-06T18:52:21.967Z,94062.00
2023-08-06T18:54:49.160Z,94062.00
2023-08-06T18:57:16.121Z,94067.00
2023-08-06T18:59:43.055Z,94070.00
2023-08-06T19:02:12.549Z,94073.00
2023-08-06T19:04:42.121Z,94070.00
2023-08-06T19:07:09.029Z,94055.00
2023-08-06T19:09:43.352Z,94068.00
2023-08-06T19:12:10.301Z,94057.00
2023-08-06T19:14:37.190Z,94065.00
2023-08-06T19:17:04.853Z,94076.00
2023-08-06T19:19:31.779Z,94076.00
2023-08-06T19:21:58.631Z,94090.00
2023-08-06T19:24:25.891Z,94079.00
2023-08-06T19:26:53.034Z,94071.00
2023-08-06T19:29:19.963Z,94065.00
2023-08-06T19:34:19.052Z,94083.00
2023-08-06T19:36:46.014Z,94083.00
2023-08-06T19:39:15.178Z,94081.00
2023-08-06T19:41:44.567Z,94080.00
2023-08-06T19:44:13.957Z,94080.00
2023-08-06T19:46:40.813Z,94076.00
2023-08-06T19:49:07.813Z,94086.00
2023-08-06T19:51:41.247Z,94083.00
2023-08-06T19:54:11.196Z,94085.00
2023-08-06T19:56:41.843Z,94089.00
2023-08-06T19:59:08.715Z,94093.00
2023-08-06T20:01:38.269Z,94107.00
2023-08-06T20:04:05.260Z,94103.00
2023-08-06T20:06:32.230Z,94115.00
2023-08-06T20:08:59.342Z,94101.00
2023-08-06T20:11:26.507Z,94096.00
2023-08-06T20:13:53.449Z,94105.00
2023-08-06T20:16:20.466Z,94103.00
2023-08-06T20:18:47.489Z,94096.00
2023-08-06T20:21:17.354Z,94098.00
2023-08-06T20:23:46.756Z,94102.00
2023-08-06T20:26:20.600Z,94099.00
2023-08-06T20:28:49.607Z,94104.00
2023-08-06T20:31:19.803Z,94119.00
2023-08-06T20:33:46.738Z,94122.00
2023-08-06T20:36:16.710Z,94130.00
2023-08-06T20:38:46.650Z,94131.00
2023-08-06T20:41:13.651Z,94132.00
2023-08-06T20:43:40.655Z,94125.00
2023-08-06T20:46:08.915Z,94117.00
2023-08-06T20:48:38.015Z,94107.00
2023-08-06T20:51:04.988Z,94119.00
2023-08-06T20:53:32.914Z,94113.00
2023-08-06T20:56:01.902Z,94105.00
2023-08-06T20:58:34.582Z,94119.00
2023-08-06T21:01:06.511Z,94115.00
2023-08-06T21:03:33.513Z,94111.00
2023-08-06T21:06:05.802Z,94107.00
2023-08-06T21:08:34.815Z,94109.00
2023-08-06T21:11:02.998Z,94123.00
2023-08-06T21:13:30.324Z,94122.00
2023-08-06T21:16:00.738Z,94125.00
2023-08-06T21:18:39.333Z,94130.00
2023-08-06T21:21:11.705Z,94129.00
2023-08-06T21:23:42.030Z,94136.00
2023-08-06T21:26:12.973Z,94136.00
2023-08-06T21:28:39.954Z,94139.00
2023-08-06T21:31:10.849Z,94142.00
2023-08-06T21:33:42.080Z,94144.00
2023-08-06T21:36:14.991Z,94144.00
2023-08-06T21:38:42.427Z,94139.00
2023-08-06T21:41:16.176Z,94131.00
2023-08-06T21:43:50.983Z,94131.00
2023-08-06T21:46:21.489Z,94120.00
2023-08-06T21:48:50.645Z,94124.00
2023-08-06T21:51:20.145Z,94119.00
2023-08-06T21:53:48.668Z,94128.00
2023-08-06T21:56:18.503Z,94118.00
2023-08-06T21:58:54.260Z,94107.00
2023-08-06T22:01:21.556Z,94121.00
2023-08-06T22:03:50.741Z,94118.00
2023-08-06T22:06:17.792Z,94124.00
2023-08-06T22:08:44.949Z,94125.00
2023-08-06T22:11:11.907Z,94128.00
2023-08-06T22:13:40.097Z,94132.00
2023-08-06T22:16:10.681Z,94122.00
2023-08-06T22:18:37.874Z,94123.00
2023-08-06T22:21:05.197Z,94129.00
2023-08-06T22:23:32.250Z,94134.00
2023-08-06T22:25:59.283Z,94140.00
2023-08-06T22:28:27.928Z,94125.00
2023-08-06T22:30:54.915Z,94136.00
2023-08-06T22:33:26.330Z,94142.00
2023-08-06T22:35:53.826Z,94140.00
2023-08-06T22:38:20.829Z,94143.00
2023-08-06T22:40:47.853Z,94141.00
2023-08-06T22:43:17.022Z,94145.00
2023-08-06T22:45:43.984Z,94150.00
2023-08-06T22:48:10.883Z,94170.00
2023-08-06T22:50:37.890Z,94170.00
2023-08-06T22:53:04.802Z,94195.00
2023-08-06T22:58:04.094Z,94177.00
2023-08-06T23:00:31.348Z,94184.00
2023-08-06T23:03:09.149Z,94182.00
2023-08-06T23:05:37.462Z,94180.00
2023-08-06T23:08:04.615Z,94170.00
2023-08-06T23:10:31.712Z,94176.00
2023-08-06T23:12:58.590Z,94173.00
2023-08-06T23:15:27.982Z,94179.00
2023-08-06T23:17:54.993Z,94177.00
2023-08-06T23:20:21.906Z,94155.00
2023-08-06T23:22:48.878Z,94150.00
2023-08-06T23:25:18.486Z,94154.00
2023-08-06T23:27:49.943Z,94156.00
2023-08-06T23:30:17.082Z,94157.00
2023-08-06T23:32:47.869Z,94152.00
2023-08-06T23:35:18.607Z,94154.00
2023-08-06T23:37:45.528Z,94153.00
2023-08-06T23:40:14.655Z,94143.00
2023-08-06T23:42:43.680Z,94143.00
2023-08-06T23:45:11.128Z,94150.00
2023-08-06T23:47:38.083Z,94146.00
2023-08-06T23:50:05.592Z,94145.00
2023-08-06T23:52:34.590Z,94138.00
2023-08-06T23:55:01.502Z,94150.00
2023-08-06T23:57:28.376Z,94145.00
2023-08-06T23:59:55.248Z,94138.00
